Time;durP1;ratioP1;P1;durP2;ratioP2;P2;SDS_P1;SDS_P2;PMS_P1;PMS_P2;Temp;Humidity;BMP_temperature;BMP_pressure;BME280_temperature;BME280_humidity;BME280_pressure;Samples;Min_cycle;Max_cycle;Signal;HPM_P1;HPM_P2
2022/05/12 00:00:23;;;;;;;6.40;2.53;;;;;;;14.61;73.15;96198.44;5022422;28;20081;-60
2022/05/12 00:02:49;;;;;;;4.65;2.50;;;;;;;14.56;72.38;96195.44;5025066;28;20535;-60
2022/05/12 00:05:14;;;;;;;2.85;2.55;;;;;;;14.45;72.71;96212.41;5020702;28;20021;-60
2022/05/12 00:07:41;;;;;;;3.30;3.00;;;;;;;14.50;72.37;96204.00;5021040;28;20057;-60
2022/05/12 00:10:08;;;;;;;5.68;3.10;;;;;;;14.45;72.87;96200.97;5020467;28;20026;-60
2022/05/12 00:12:35;;;;;;;3.20;2.92;;;;;;;14.44;72.90;96201.94;5021425;28;20081;-60
2022/05/12 00:15:02;;;;;;;3.95;3.17;;;;;;;14.42;72.57;96204.78;5015741;28;20041;-60
2022/05/12 00:17:27;;;;;;;3.13;2.85;;;;;;;14.47;71.69;96204.28;5022643;28;20365;-60
2022/05/12 00:19:53;;;;;;;2.63;2.50;;;;;;;14.43;72.01;96206.44;5019948;28;20021;-60
2022/05/12 00:22:18;;;;;;;3.20;2.70;;;;;;;14.61;70.56;96189.69;5020925;28;20448;-60
2022/05/12 00:24:44;;;;;;;3.20;2.90;;;;;;;14.51;71.20;96195.06;5018912;28;20068;-60
2022/05/12 00:27:09;;;;;;;2.90;2.75;;;;;;;14.45;72.22;96201.81;5026299;28;20037;-60
2022/05/12 00:29:35;;;;;;;2.85;2.65;;;;;;;14.41;71.84;96204.91;5019689;28;20025;-60
2022/05/12 00:32:00;;;;;;;3.85;2.80;;;;;;;14.41;70.69;96205.75;5021020;28;20029;-60
2022/05/12 00:34:26;;;;;;;2.88;2.53;;;;;;;14.48;70.62;96213.94;5021612;28;20401;-60
2022/05/12 00:36:51;;;;;;;3.75;2.92;;;;;;;14.75;68.91;96214.81;5016208;28;20058;-60
2022/05/12 00:39:17;;;;;;;3.35;3.05;;;;;;;14.68;69.49;96205.75;5019400;28;20525;-60
2022/05/12 00:41:43;;;;;;;2.92;2.72;;;;;;;14.58;70.22;96212.00;5023071;28;20104;-60
2022/05/12 00:44:11;;;;;;;3.22;3.03;;;;;;;14.63;70.43;96202.75;5020868;28;20060;-60
2022/05/12 00:46:40;;;;;;;9.85;3.13;;;;;;;14.47;71.83;96213.09;5015290;28;20544;-60
2022/05/12 00:49:14;;;;;;;5.50;2.55;;;;;;;14.32;71.11;96212.81;5023598;28;20574;-60
2022/05/12 00:51:45;;;;;;;2.55;2.35;;;;;;;14.29;71.26;96218.41;5017304;28;20075;-60
2022/05/12 00:54:19;;;;;;;3.45;3.15;;;;;;;14.22;72.21;96217.34;5019266;28;20085;-60
2022/05/12 00:56:49;;;;;;;4.53;3.35;;;;;;;14.16;72.19;96216.16;5021707;28;20095;-60
2022/05/12 00:59:30;;;;;;;4.28;3.25;;;;;;;14.15;72.16;96211.84;5016378;28;20077;-60
2022/05/12 01:01:56;;;;;;;4.10;2.75;;;;;;;14.23;71.45;96211.03;5019495;28;20060;-60
2022/05/12 01:04:22;;;;;;;3.65;3.22;;;;;;;14.17;72.29;96214.31;5018700;28;20033;-59
2022/05/12 01:06:49;;;;;;;3.22;2.92;;;;;;;14.10;72.34;96210.63;5014640;28;20037;-60
2022/05/12 01:09:15;;;;;;;4.70;3.00;;;;;;;13.99;73.00;96201.91;5012840;28;20109;-60
2022/05/12 01:11:41;;;;;;;3.20;3.00;;;;;;;13.92;73.22;96207.94;5019695;28;20021;-60
2022/05/12 01:14:08;;;;;;;7.28;3.03;;;;;;;13.89;73.30;96212.56;5021983;28;20100;-60
2022/05/12 01:16:39;;;;;;;3.45;3.15;;;;;;;13.82;74.26;96215.97;5019610;28;20093;-61
2022/05/12 01:19:07;;;;;;;3.33;2.97;;;;;;;13.75;74.61;96211.25;5016298;28;20065;-59
2022/05/12 01:21:33;;;;;;;3.70;3.10;;;;;;;13.96;73.16;96218.09;5015820;28;20070;-59
2022/05/12 01:24:00;;;;;;;3.42;2.70;;;;;;;13.87;72.82;96219.00;5019924;28;20388;-60
2022/05/12 01:26:26;;;;;;;3.40;3.15;;;;;;;14.02;72.00;96212.19;5012793;28;20021;-59
2022/05/12 01:28:51;;;;;;;4.72;3.17;;;;;;;13.87;73.17;96213.72;5021263;28;20056;-60
2022/05/12 01:31:19;;;;;;;3.25;2.72;;;;;;;13.99;72.19;96217.78;5017754;28;20057;-59
2022/05/12 01:33:45;;;;;;;3.42;3.10;;;;;;;13.73;73.33;96218.50;5017799;28;20044;-59
2022/05/12 01:36:10;;;;;;;4.43;2.90;;;;;;;13.61;74.67;96222.38;5017579;28;20022;-60
2022/05/12 01:38:36;;;;;;;3.05;2.50;;;;;;;13.44;75.45;96226.59;5018512;28;20427;-59
2022/05/12 01:41:01;;;;;;;3.10;2.90;;;;;;;13.34;76.42;96234.56;5018271;28;20083;-59
2022/05/12 01:43:27;;;;;;;10.70;3.10;;;;;;;13.31;76.58;96233.06;5015610;28;20033;-60
2022/05/12 01:45:52;;;;;;;2.92;2.72;;;;;;;13.30;76.44;96234.03;5018363;28;20109;-60
2022/05/12 01:48:19;;;;;;;3.25;3.03;;;;;;;13.19;78.26;96234.19;5016126;28;20038;-60
2022/05/12 01:50:46;;;;;;;4.47;3.42;;;;;;;13.20;78.39;96227.94;5014155;28;20526;-59
2022/05/12 01:53:14;;;;;;;3.33;3.03;;;;;;;13.19;77.64;96223.63;5021925;28;20056;-60
2022/05/12 01:55:40;;;;;;;4.78;3.40;;;;;;;13.17;76.95;96226.44;5018465;28;20057;-59
2022/05/12 01:58:06;;;;;;;3.78;3.20;;;;;;;13.19;77.28;96231.56;5017619;28;20062;-59
2022/05/12 02:00:33;;;;;;;4.95;3.40;;;;;;;13.15;77.01;96231.03;5022849;28;20504;-60
2022/05/12 02:03:00;;;;;;;3.58;3.30;;;;;;;13.10;77.31;96238.53;5020424;28;20022;-59
2022/05/12 02:05:31;;;;;;;4.05;3.20;;;;;;;13.08;78.13;96243.13;5013823;28;20386;-60
2022/05/12 02:07:57;;;;;;;3.55;3.03;;;;;;;13.10;78.02;96237.72;5018352;28;20393;-60
2022/05/12 02:10:29;;;;;;;6.07;3.40;;;;;;;13.09;78.03;96244.81;5015262;28;20036;-60
2022/05/12 02:12:55;;;;;;;5.00;3.05;;;;;;;13.08;77.38;96239.69;5016916;28;20036;-59
2022/05/12 02:15:22;;;;;;;3.08;2.88;;;;;;;13.06;77.14;96237.16;5017859;28;20400;-59
2022/05/12 02:17:49;;;;;;;3.20;3.00;;;;;;;13.00;77.05;96243.84;5015219;28;20026;-59
2022/05/12 02:20:17;;;;;;;4.05;2.78;;;;;;;12.94;77.33;96244.44;5020396;28;20009;-59
2022/05/12 02:22:43;;;;;;;3.25;3.00;;;;;;;12.92;77.92;96246.41;5019329;28;20080;-59
2022/05/12 02:25:09;;;;;;;3.53;3.22;;;;;;;12.88;78.19;96245.84;5020490;28;20504;-60
2022/05/12 02:27:36;;;;;;;6.00;3.28;;;;;;;12.82;78.71;96250.84;5025278;28;20116;-59
2022/05/12 02:30:04;;;;;;;7.47;6.78;;;;;;;12.80;78.98;96248.38;5020318;28;21062;-60
2022/05/12 02:32:29;;;;;;;5.85;4.78;;;;;;;12.76;78.25;96252.28;5018735;28;20022;-59
2022/05/12 02:34:56;;;;;;;6.88;3.63;;;;;;;12.81;77.44;96255.31;5021262;28;20031;-60
2022/05/12 02:37:22;;;;;;;4.22;3.58;;;;;;;12.82;77.37;96250.84;5024298;28;20653;-59
2022/05/12 02:39:47;;;;;;;3.47;3.17;;;;;;;12.84;77.46;96254.22;5026337;28;20025;-59
2022/05/12 02:42:13;;;;;;;3.80;3.50;;;;;;;12.80;78.59;96251.00;5024302;28;20092;-60
2022/05/12 02:44:39;;;;;;;5.32;2.85;;;;;;;12.67;78.84;96263.66;5022270;28;20451;-59
2022/05/12 02:47:07;;;;;;;3.70;3.40;;;;;;;12.56;79.46;96267.28;5024058;28;20026;-59
2022/05/12 02:49:33;;;;;;;3.97;3.47;;;;;;;12.52;79.77;96260.63;5021027;28;20087;-60
2022/05/12 02:51:58;;;;;;;4.90;3.30;;;;;;;12.93;76.76;96263.06;5017419;28;20467;-60
2022/05/12 02:54:23;;;;;;;4.32;3.30;;;;;;;12.67;78.03;96258.38;5020087;28;20028;-59
2022/05/12 02:56:52;;;;;;;3.80;2.90;;;;;;;12.60;78.12;96252.84;5020899;28;20029;-60
2022/05/12 02:59:17;;;;;;;3.55;3.25;;;;;;;12.56;78.23;96256.72;5026793;28;20049;-59
2022/05/12 03:01:43;;;;;;;3.70;3.40;;;;;;;12.53;79.22;96247.31;5022629;28;20582;-59
2022/05/12 03:04:09;;;;;;;3.67;3.17;;;;;;;12.48;79.14;96251.31;5024785;28;20026;-60
2022/05/12 03:06:34;;;;;;;6.32;3.33;;;;;;;12.41;79.37;96254.53;5020996;28;20030;-60
2022/05/12 03:09:00;;;;;;;3.78;3.50;;;;;;;12.35;80.10;96249.78;5019365;28;20029;-59
2022/05/12 03:11:25;;;;;;;7.15;3.60;;;;;;;12.34;79.18;96253.41;5020081;28;20082;-60
2022/05/12 03:13:51;;;;;;;4.03;2.88;;;;;;;12.29;78.59;96245.06;5020952;28;20412;-60
2022/05/12 03:16:18;;;;;;;3.60;3.30;;;;;;;12.23;78.65;96254.38;5018293;28;20029;-60
2022/05/12 03:18:46;;;;;;;3.50;3.30;;;;;;;12.22;79.69;96258.00;5021954;28;20104;-60
2022/05/12 03:21:14;;;;;;;3.65;3.35;;;;;;;12.11;80.69;96260.78;5019643;28;20076;-60
2022/05/12 03:23:40;;;;;;;3.28;2.92;;;;;;;11.95;81.88;96261.28;5016295;28;20181;-60
2022/05/12 03:26:06;;;;;;;4.70;3.75;;;;;;;11.93;81.76;96260.56;5025404;28;20443;-59
2022/05/12 03:28:31;;;;;;;3.38;3.08;;;;;;;11.89;80.88;96249.47;5014470;28;20100;-59
2022/05/12 03:30:57;;;;;;;7.63;3.22;;;;;;;11.89;81.46;96257.38;5018743;28;20021;-60
2022/05/12 03:33:22;;;;;;;3.85;3.50;;;;;;;11.84;80.93;96257.78;5024858;28;20112;-60
2022/05/12 03:35:49;;;;;;;6.60;3.50;;;;;;;11.80;81.59;96253.75;5026686;28;20022;-60
2022/05/12 03:38:14;;;;;;;3.53;3.22;;;;;;;11.78;82.32;96252.22;5022560;28;20021;-59
2022/05/12 03:40:40;;;;;;;3.53;3.33;;;;;;;11.77;81.83;96253.19;5022497;28;20096;-60
2022/05/12 03:43:05;;;;;;;3.50;3.15;;;;;;;11.76;81.26;96255.00;5019971;28;20397;-59
2022/05/12 03:45:33;;;;;;;3.58;3.28;;;;;;;11.74;80.85;96252.47;5026753;28;20112;-60
2022/05/12 03:47:59;;;;;;;5.35;2.80;;;;;;;11.74;81.95;96257.75;5020757;28;20030;-60
2022/05/12 03:50:26;;;;;;;3.75;3.47;;;;;;;11.67;82.34;96251.38;5020153;28;20550;-60
2022/05/12 03:52:54;;;;;;;3.15;2.95;;;;;;;11.68;81.99;96253.03;5019428;28;20084;-60
2022/05/12 03:55:23;;;;;;;7.50;3.75;;;;;;;11.72;82.24;96248.34;5022042;28;20053;-60
2022/05/12 03:57:51;;;;;;;4.70;3.75;;;;;;;11.64;82.35;96256.06;5019943;28;20026;-60
2022/05/12 04:00:20;;;;;;;3.97;3.58;;;;;;;11.65;82.61;96253.31;5020079;28;20543;-60
2022/05/12 04:02:47;;;;;;;4.07;3.38;;;;;;;11.70;81.94;96250.25;5023135;28;20083;-60
2022/05/12 04:05:13;;;;;;;6.75;3.30;;;;;;;11.70;81.78;96256.38;5025928;28;20443;-60
2022/05/12 04:07:43;;;;;;;12.30;3.53;;;;;;;11.72;81.38;96248.34;5022942;28;20029;-60
2022/05/12 04:10:11;;;;;;;4.53;3.65;;;;;;;11.70;81.62;96259.00;5023134;28;20045;-60
2022/05/12 04:12:37;;;;;;;4.07;3.15;;;;;;;11.67;82.23;96256.63;5016749;28;20029;-60
2022/05/12 04:15:03;;;;;;;6.57;3.70;;;;;;;11.70;81.93;96259.00;5025487;28;20080;-60
2022/05/12 04:17:28;;;;;;;3.63;3.33;;;;;;;11.74;82.00;96265.66;5023861;28;20119;-60
2022/05/12 04:19:54;;;;;;;4.53;3.80;;;;;;;11.69;82.14;96264.41;5025118;28;20132;-59
2022/05/12 04:22:19;;;;;;;3.78;3.47;;;;;;;11.64;82.49;96270.09;5023015;28;20437;-59
2022/05/12 04:24:45;;;;;;;5.60;3.90;;;;;;;11.58;82.71;96274.09;5025948;28;20048;-60
2022/05/12 04:27:11;;;;;;;5.95;3.45;;;;;;;11.55;83.86;96279.66;5024757;28;20087;-59
2022/05/12 04:29:38;;;;;;;5.20;3.53;;;;;;;11.51;84.31;96283.53;5017567;28;20052;-60
2022/05/12 04:32:04;;;;;;;5.45;3.50;;;;;;;11.46;83.20;96278.63;5019821;28;20084;-60
2022/05/12 04:37:13;;;;;;;4.60;3.50;;;;;;;11.49;82.53;96279.34;5014865;28;20076;-60
2022/05/12 04:39:38;;;;;;;5.15;3.05;;;;;;;11.51;82.54;96278.25;5016223;28;20045;-59
2022/05/12 04:42:04;;;;;;;3.90;3.47;;;;;;;11.51;82.39;96280.88;5021308;28;20109;-59
2022/05/12 04:44:30;;;;;;;6.22;3.83;;;;;;;11.50;82.57;96281.00;5027345;28;20485;-60
2022/05/12 04:46:55;;;;;;;4.28;3.97;;;;;;;11.45;83.16;96287.53;5016275;28;20030;-60
2022/05/12 04:49:22;;;;;;;4.65;3.80;;;;;;;11.47;83.10;96276.81;5016965;28;20468;-60
2022/05/12 04:51:48;;;;;;;10.20;4.20;;;;;;;11.50;82.92;96281.00;5017663;28;20393;-59
2022/05/12 04:54:14;;;;;;;4.22;3.83;;;;;;;11.45;85.08;96284.03;5013995;28;20022;-59
2022/05/12 04:56:41;;;;;;;4.82;3.53;;;;;;;11.49;83.98;96285.44;5025023;28;20499;-59
2022/05/12 04:59:08;;;;;;;5.10;4.60;;;;;;;11.55;83.54;96284.06;5015913;28;20041;-59
2022/05/12 05:01:34;;;;;;;4.38;3.97;;;;;;;11.51;84.63;96295.84;5016634;28;20083;-60
2022/05/12 05:04:01;;;;;;;4.28;3.97;;;;;;;11.56;83.91;96301.56;5019490;28;20448;-59
2022/05/12 05:06:31;;;;;;;3.80;3.60;;;;;;;11.60;83.47;96306.44;5022735;28;20076;-60
2022/05/12 05:08:57;;;;;;;7.03;3.72;;;;;;;11.65;83.42;96306.06;5021977;28;20416;-60
2022/05/12 05:11:22;;;;;;;4.28;3.70;;;;;;;11.63;83.97;96307.16;5024730;28;20044;-60
2022/05/12 05:13:48;;;;;;;6.45;3.90;;;;;;;11.67;83.05;96308.53;5024607;28;20473;-60
2022/05/12 05:16:15;;;;;;;4.07;3.72;;;;;;;11.67;83.35;96308.53;5019647;28;20036;-60
2022/05/12 05:18:40;;;;;;;5.25;3.75;;;;;;;11.75;83.10;96314.00;5022508;28;20037;-59
2022/05/12 05:21:06;;;;;;;5.57;3.83;;;;;;;11.78;82.46;96316.38;5014675;28;20030;-60
2022/05/12 05:23:31;;;;;;;7.60;4.30;;;;;;;11.80;83.98;96314.44;5012329;28;20026;-59
2022/05/12 05:25:57;;;;;;;7.00;4.00;;;;;;;11.92;84.75;96323.06;5023374;28;20033;-60
2022/05/12 05:28:23;;;;;;;10.07;4.20;;;;;;;12.07;83.74;96320.91;5019236;28;20033;-60
2022/05/12 05:30:50;;;;;;;6.75;4.13;;;;;;;12.25;83.29;96322.88;5017325;28;20026;-60
2022/05/12 05:33:16;;;;;;;5.20;4.35;;;;;;;12.43;82.85;96315.13;5022973;28;20402;-60
2022/05/12 05:35:41;;;;;;;5.95;4.40;;;;;;;12.63;81.54;96317.75;5015357;28;20026;-60
2022/05/12 05:38:07;;;;;;;8.07;4.53;;;;;;;12.78;80.11;96312.88;5014230;28;20112;-60
2022/05/12 05:40:33;;;;;;;8.23;4.35;;;;;;;12.96;79.13;96305.09;5014289;28;20473;-60
2022/05/12 05:42:58;;;;;;;6.43;4.00;;;;;;;13.14;77.61;96315.75;5019042;28;20079;-60
2022/05/12 05:45:25;;;;;;;5.10;4.25;;;;;;;13.19;77.40;96316.16;5023428;28;20120;-60
2022/05/12 05:47:55;;;;;;;6.30;3.90;;;;;;;13.26;77.37;96319.91;5022262;28;20038;-60
2022/05/12 05:50:25;;;;;;;6.28;3.90;;;;;;;13.23;77.76;96322.00;5015216;28;20560;-60
2022/05/12 05:55:34;;;;;;;6.18;4.03;;;;;;;13.34;78.44;96319.19;5021675;28;20132;-60
2022/05/12 05:58:01;;;;;;;4.13;3.40;;;;;;;13.51;77.85;96324.72;5026625;28;20045;-60
2022/05/12 06:00:27;;;;;;;3.60;3.40;;;;;;;13.73;77.34;96312.97;5017939;28;20041;-60
2022/05/12 06:02:52;;;;;;;5.53;3.50;;;;;;;14.02;75.88;96312.78;5018337;28;20504;-61
2022/05/12 06:05:18;;;;;;;6.55;3.40;;;;;;;14.19;73.50;96318.25;5021402;28;20030;-60
2022/05/12 06:07:45;;;;;;;8.57;3.67;;;;;;;14.44;73.09;96315.84;5017858;28;20465;-61
2022/05/12 06:10:11;;;;;;;4.53;3.33;;;;;;;14.73;71.71;96317.50;5018607;28;20040;-59
2022/05/12 06:12:38;;;;;;;5.65;3.38;;;;;;;15.12;70.34;96311.81;5019055;28;20072;-59
2022/05/12 06:15:04;;;;;;;4.78;3.40;;;;;;;15.45;67.61;96316.47;5025166;28;20446;-60
2022/05/12 06:17:30;;;;;;;7.72;3.67;;;;;;;15.85;64.91;96312.38;5019935;28;20385;-60
2022/05/12 06:19:55;;;;;;;5.57;3.45;;;;;;;16.07;64.78;96301.38;5027649;28;20091;-60
2022/05/12 06:22:21;;;;;;;7.63;3.78;;;;;;;16.35;63.11;96314.38;5020697;28;20108;-59
2022/05/12 06:24:47;;;;;;;6.50;3.03;;;;;;;16.58;62.76;96309.28;5022533;28;20029;-60
2022/05/12 06:27:19;;;;;;;7.13;2.92;;;;;;;16.96;61.00;96312.28;5027802;28;20131;-60
2022/05/12 06:29:45;;;;;;;3.67;2.50;;;;;;;17.24;56.07;96311.97;5021721;28;20021;-59
2022/05/12 06:32:11;;;;;;;3.63;3.00;;;;;;;17.65;55.80;96311.03;5020195;28;20080;-60
2022/05/12 06:34:37;;;;;;;3.72;2.90;;;;;;;17.98;55.57;96310.88;5029559;28;20028;-59
2022/05/12 06:37:04;;;;;;;8.68;2.88;;;;;;;18.52;54.89;96317.31;5023173;28;20104;-60
2022/05/12 06:39:30;;;;;;;6.25;3.20;;;;;;;18.94;55.96;96309.00;5021480;28;20079;-60
2022/05/12 06:41:55;;;;;;;10.48;4.18;;;;;;;19.27;54.53;96303.38;5021901;28;20018;-60
2022/05/12 06:44:20;;;;;;;11.60;4.55;;;;;;;19.72;52.97;96312.25;5024644;28;20508;-60
2022/05/12 06:46:46;;;;;;;3.22;2.88;;;;;;;20.14;49.85;96309.09;5024183;28;20037;-60
2022/05/12 06:49:11;;;;;;;3.97;2.67;;;;;;;20.29;48.63;96301.06;5022007;28;20026;-60
2022/05/12 06:51:37;;;;;;;3.33;2.67;;;;;;;20.47;47.71;96309.47;5021509;28;20063;-60
2022/05/12 06:54:02;;;;;;;3.55;2.47;;;;;;;20.65;46.18;96310.91;5018258;28;20025;-60
2022/05/12 06:56:28;;;;;;;2.38;2.03;;;;;;;20.98;44.10;96313.09;5028029;28;20029;-60
2022/05/12 06:58:54;;;;;;;2.70;2.50;;;;;;;21.08;43.95;96315.44;5022185;28;20108;-60
2022/05/12 07:01:20;;;;;;;3.38;2.42;;;;;;;21.35;44.32;96318.34;5021993;28;20508;-59
2022/05/12 07:03:45;;;;;;;3.30;2.22;;;;;;;21.74;44.51;96324.19;5023150;28;20143;-61
2022/05/12 07:06:11;;;;;;;2.47;2.28;;;;;;;21.99;44.24;96313.78;5025286;28;20032;-74
2022/05/12 07:08:40;;;;;;;2.70;2.42;;;;;;;22.39;42.43;96313.13;5023273;28;20026;-60
2022/05/12 07:11:06;;;;;;;3.63;2.50;;;;;;;22.63;43.29;96305.56;5023645;28;20124;-60
2022/05/12 07:13:31;;;;;;;5.07;2.60;;;;;;;22.96;43.30;96301.28;5018462;28;20104;-60
2022/05/12 07:15:56;;;;;;;2.85;2.30;;;;;;;23.58;40.84;96296.50;5018803;28;20025;-60
2022/05/12 07:18:22;;;;;;;3.05;2.08;;;;;;;23.66;41.52;96292.78;5026736;28;20037;-60
2022/05/12 07:28:59;;;;;;;3.70;2.30;;;;;;;24.42;36.99;96295.00;5023309;28;20037;-61
2022/05/12 07:31:25;;;;;;;2.55;2.28;;;;;;;24.01;36.71;96289.81;5021291;28;21271;-60
2022/05/12 07:33:50;;;;;;;3.67;2.47;;;;;;;23.58;38.70;96293.81;5015193;28;20034;-60
2022/05/12 07:36:25;;;;;;;5.93;2.10;;;;;;;24.09;36.75;96291.41;5018746;28;20152;-60
2022/05/12 07:38:52;;;;;;;3.28;2.10;;;;;;;23.66;38.47;96290.09;5016991;28;20029;-60
2022/05/12 07:41:18;;;;;;;4.57;2.13;;;;;;;23.83;37.08;96286.94;5015959;28;20022;-60
2022/05/12 07:43:45;;;;;;;2.40;2.20;;;;;;;23.29;36.52;96289.72;5015856;28;20492;-60
2022/05/12 07:46:12;;;;;;;5.90;2.25;;;;;;;23.16;36.93;96285.16;5017160;28;20065;-60
2022/05/12 07:48:39;;;;;;;3.33;2.03;;;;;;;23.11;37.01;96280.44;5016396;28;20034;-60
2022/05/12 07:51:05;;;;;;;2.70;2.00;;;;;;;23.70;35.35;96283.25;5015536;28;20029;-60
2022/05/12 07:53:31;;;;;;;6.68;2.25;;;;;;;24.34;34.78;96287.19;5019288;28;20025;-60
2022/05/12 07:55:56;;;;;;;2.85;2.00;;;;;;;24.42;33.16;96278.84;5018545;28;20065;-60
2022/05/12 07:58:23;;;;;;;2.92;2.00;;;;;;;24.03;34.66;96276.97;5021592;28;20183;-60
2022/05/12 08:00:48;;;;;;;2.30;2.10;;;;;;;23.56;36.42;96282.47;5017237;28;20548;-60
2022/05/12 08:03:13;;;;;;;5.93;2.78;;;;;;;23.64;39.42;96277.88;5023118;28;20022;-60
2022/05/12 08:05:39;;;;;;;3.75;2.33;;;;;;;24.20;35.72;96276.47;5020306;28;20038;-60
2022/05/12 08:08:48;;;;;;;1.90;1.80;;;;;;;24.13;35.52;96276.53;5020527;28;20034;-60
2022/05/12 08:11:14;;;;;;;10.05;2.25;;;;;;;24.25;36.26;96275.84;5017375;28;20057;-59
2022/05/12 08:13:40;;;;;;;5.88;2.10;;;;;;;24.37;36.95;96276.81;5014862;28;20037;-59
2022/05/12 08:16:06;;;;;;;3.05;2.10;;;;;;;24.78;35.00;96277.41;5017430;28;20481;-60
2022/05/12 08:18:33;;;;;;;1.77;1.67;;;;;;;25.00;34.89;96277.03;5016085;28;20033;-60
2022/05/12 08:20:59;;;;;;;1.80;1.70;;;;;;;25.25;35.18;96276.22;5021028;28;20056;-60
2022/05/12 08:23:25;;;;;;;3.45;1.67;;;;;;;26.35;30.69;96272.97;5016252;28;20550;-60
2022/05/12 08:25:51;;;;;;;3.58;1.75;;;;;;;25.96;31.97;96265.94;5016496;28;20041;-60
2022/05/12 08:28:20;;;;;;;2.70;2.08;;;;;;;25.94;32.22;96268.06;5014320;28;20052;-60
2022/05/12 08:30:46;;;;;;;5.50;1.77;;;;;;;26.26;31.42;96265.22;5014007;28;20095;-60
2022/05/12 08:33:13;;;;;;;2.90;1.88;;;;;;;26.13;31.48;96259.94;5015924;28;20065;-60
2022/05/12 08:35:39;;;;;;;2.25;2.05;;;;;;;26.24;32.75;96261.09;5016250;28;20033;-60
2022/05/12 08:38:05;;;;;;;2.30;1.90;;;;;;;26.13;34.23;96266.19;5014815;28;20044;-60
2022/05/12 08:41:16;;;;;;;4.47;1.90;;;;;;;26.46;30.64;96262.22;5022010;28;20128;-60
2022/05/12 08:43:53;;;;;;;2.83;1.88;;;;;;;26.78;29.88;96263.84;5005330;28;20041;-60
2022/05/12 08:46:23;;;;;;;1.85;1.63;;;;;;;25.54;31.94;96269.34;5015089;28;20038;-60
2022/05/12 08:48:57;;;;;;;2.70;1.80;;;;;;;25.79;32.37;96273.03;5019486;28;20022;-60
2022/05/12 08:51:23;;;;;;;4.45;1.70;;;;;;;26.45;29.31;96271.38;5019773;28;20044;-60
2022/05/12 08:54:03;;;;;;;1.73;1.63;;;;;;;26.30;29.97;96268.25;5015366;28;20468;-60
2022/05/12 08:56:29;;;;;;;6.53;1.90;;;;;;;26.65;29.97;96272.16;5021530;28;20030;-60
2022/05/12 08:58:57;;;;;;;3.15;2.17;;;;;;;26.30;30.46;96269.09;5015965;28;20117;-60
2022/05/12 09:01:39;;;;;;;2.92;2.00;;;;;;;26.44;29.71;96271.63;5018683;28;20029;-60
2022/05/12 09:04:04;;;;;;;3.05;1.95;;;;;;;26.30;30.18;96263.69;5017476;28;20516;-60
2022/05/12 09:06:38;;;;;;;3.90;2.17;;;;;;;26.25;30.68;96262.72;5016189;28;20049;-60
2022/05/12 09:09:21;;;;;;;1.73;1.63;;;;;;;26.31;30.76;96262.66;5015980;28;20021;-60
2022/05/12 09:12:02;;;;;;;2.85;2.00;;;;;;;27.50;28.35;96256.66;5016631;28;20401;-60
2022/05/12 09:14:38;;;;;;;2.80;1.73;;;;;;;26.98;29.53;96254.63;5024572;28;20040;-60
2022/05/12 09:17:04;;;;;;;6.05;2.15;;;;;;;27.22;29.22;96257.34;5019223;28;20026;-60
2022/05/12 09:19:30;;;;;;;4.45;1.83;;;;;;;27.05;30.57;96249.94;5021098;28;20033;-60
2022/05/12 09:21:58;;;;;;;2.55;1.85;;;;;;;26.97;29.73;96244.88;5015784;28;20034;-60
2022/05/12 09:24:23;;;;;;;3.05;2.28;;;;;;;27.39;30.01;96252.06;5014051;28;20040;-60
2022/05/12 09:26:52;;;;;;;4.82;2.00;;;;;;;28.12;27.63;96247.16;5014629;28;20400;-59
2022/05/12 09:29:25;;;;;;;5.20;1.98;;;;;;;26.92;30.60;96242.88;5017721;28;20033;-61
2022/05/12 09:31:53;;;;;;;3.83;3.42;;;;;;;25.95;31.42;96237.34;5017055;28;20041;-58
2022/05/12 09:34:21;;;;;;;3.80;1.83;;;;;;;27.16;30.46;96241.03;5019168;28;20033;-58
2022/05/12 09:36:47;;;;;;;9.93;3.47;;;;;;;26.65;32.49;96239.75;5019272;28;20109;-58
2022/05/12 09:39:35;;;;;;;6.80;2.30;;;;;;;26.92;31.43;96233.97;5017854;28;20547;-59
2022/05/12 09:42:01;;;;;;;3.97;2.30;;;;;;;26.46;32.43;96237.13;5016154;28;20033;-57
2022/05/12 09:44:29;;;;;;;7.70;3.05;;;;;;;26.30;32.97;96233.19;5018534;28;20037;-58
2022/05/12 09:47:10;;;;;;;5.90;1.80;;;;;;;26.48;31.92;96229.63;5016751;28;20155;-59
2022/05/12 09:49:41;;;;;;;2.40;1.73;;;;;;;26.48;31.29;96228.78;5016058;28;20053;-59
2022/05/12 09:52:19;;;;;;;3.70;2.80;;;;;;;26.13;32.46;96225.72;5017120;28;20026;-59
2022/05/12 09:54:45;;;;;;;3.15;2.03;;;;;;;27.14;30.87;96215.28;5018165;28;20097;-59
2022/05/12 09:57:18;;;;;;;2.03;1.83;;;;;;;27.22;31.28;96216.81;5019123;28;20029;-58
2022/05/12 10:00:07;;;;;;;5.35;2.38;;;;;;;26.62;31.98;96222.13;5022430;28;20120;-59
2022/05/12 10:08:16;;;;;;;3.30;2.13;;;;;;;27.36;31.87;96195.78;5021769;28;20259;-60
2022/05/12 10:10:44;;;;;;;2.22;2.00;;;;;;;28.73;28.01;96194.38;5022992;28;20030;-59
2022/05/12 10:13:28;;;;;;;4.00;2.10;;;;;;;28.01;29.69;96192.00;5022185;28;20392;-59
2022/05/12 10:15:56;;;;;;;4.15;2.25;;;;;;;28.14;30.01;96195.47;5026719;28;20046;-60
2022/05/12 10:18:34;;;;;;;2.72;1.95;;;;;;;28.47;30.28;96187.69;5025459;28;20033;-60
2022/05/12 10:21:12;;;;;;;3.53;1.90;;;;;;;29.00;28.52;96181.00;5026434;28;20401;-59
2022/05/12 10:23:56;;;;;;;3.85;1.80;;;;;;;28.30;30.38;96174.97;5021029;28;20477;-60
2022/05/12 10:26:48;;;;;;;6.03;2.10;;;;;;;28.40;31.11;96177.84;5024667;28;20037;-60
2022/05/12 10:29:53;;;;;;;3.88;2.15;;;;;;;28.13;30.26;96172.19;5017813;28;20083;-59
2022/05/12 10:32:26;;;;;;;6.28;2.10;;;;;;;28.91;30.34;96163.53;5019049;28;20112;-60
2022/05/12 10:35:03;;;;;;;3.50;2.00;;;;;;;29.56;29.13;96149.53;5018301;28;20021;-59
2022/05/12 10:37:53;;;;;;;3.17;2.60;;;;;;;29.39;28.02;96153.09;5017789;28;20445;-60
2022/05/12 10:40:41;;;;;;;2.00;1.88;;;;;;;29.05;29.68;96147.72;5016801;28;20485;-59
2022/05/12 10:43:28;;;;;;;7.13;2.10;;;;;;;29.00;28.43;96144.94;5013169;28;20497;-59
2022/05/12 10:46:13;;;;;;;2.55;1.70;;;;;;;29.49;26.43;96148.88;5020365;28;20041;-59
2022/05/12 10:48:43;;;;;;;2.90;2.05;;;;;;;29.16;28.39;96144.09;5018704;28;20409;-59
2022/05/12 10:51:21;;;;;;;7.18;2.03;;;;;;;29.38;28.20;96143.31;5021276;28;20044;-59
2022/05/12 10:54:01;;;;;;;4.53;2.13;;;;;;;29.09;29.30;96135.34;5025497;28;20038;-60
2022/05/12 10:56:41;;;;;;;2.22;1.90;;;;;;;28.25;30.14;96145.94;5023447;28;20467;-59
2022/05/12 10:59:32;;;;;;;3.00;1.90;;;;;;;29.21;28.20;96143.38;5019660;28;20050;-58
2022/05/12 11:02:08;;;;;;;3.47;2.50;;;;;;;29.08;28.75;96136.41;5022448;28;20042;-59
2022/05/12 11:04:38;;;;;;;2.60;1.90;;;;;;;29.92;24.88;96125.50;5012961;28;20029;-59
2022/05/12 11:07:10;;;;;;;2.80;1.70;;;;;;;30.04;26.29;96132.72;5015639;28;20033;-59
2022/05/12 11:09:43;;;;;;;2.47;2.17;;;;;;;30.01;26.93;96134.88;5025161;28;20025;-59
2022/05/12 11:12:20;;;;;;;5.07;2.55;;;;;;;29.44;26.29;96136.09;5015507;28;20120;-58
2022/05/12 11:14:55;;;;;;;5.35;1.92;;;;;;;29.09;26.55;96129.94;5015421;28;20100;-59
2022/05/12 11:17:46;;;;;;;4.82;1.90;;;;;;;29.91;25.23;96129.28;5017891;28;20431;-59
2022/05/12 11:20:28;;;;;;;2.22;1.70;;;;;;;30.36;25.86;96123.78;5019994;28;20078;-58
2022/05/12 11:23:08;;;;;;;2.95;1.90;;;;;;;30.92;24.73;96123.41;5024660;28;20086;-59
2022/05/12 11:25:56;;;;;;;2.58;1.70;;;;;;;30.78;25.65;96125.75;5013437;28;20033;-59
2022/05/12 11:31:27;;;;;;;2.65;1.67;;;;;;;30.65;24.67;96121.59;5021516;28;20064;-59
2022/05/12 11:34:00;;;;;;;1.85;1.70;;;;;;;30.85;23.98;96120.09;5024951;28;20029;-59
2022/05/12 11:36:39;;;;;;;1.58;1.48;;;;;;;31.41;21.41;96110.66;5015478;28;20036;-58
2022/05/12 11:39:36;;;;;;;2.97;2.08;;;;;;;30.53;24.00;96113.59;5013815;28;20452;-58
2022/05/12 11:42:06;;;;;;;2.67;1.80;;;;;;;31.28;21.45;96109.22;5014236;28;20032;-58
2022/05/12 11:44:39;;;;;;;1.85;1.75;;;;;;;31.29;23.20;96108.97;5019514;28;20025;-58
2022/05/12 11:47:40;;;;;;;7.60;2.10;;;;;;;31.23;22.75;96099.16;5024142;28;20029;-59
2022/05/12 11:50:24;;;;;;;2.80;1.80;;;;;;;31.05;22.40;96097.66;4983218;28;20041;-60
2022/05/12 11:53:13;;;;;;;2.08;1.88;;;;;;;31.23;21.13;96095.59;5020415;28;20029;-59
2022/05/12 11:55:56;;;;;;;2.75;1.80;;;;;;;30.76;23.74;96098.03;5025682;28;20030;-58
2022/05/12 11:59:12;;;;;;;2.00;1.80;;;;;;;30.84;22.36;96094.84;5025828;28;20056;-59
2022/05/12 12:01:37;;;;;;;4.25;1.80;;;;;;;30.78;21.01;96093.16;5003413;28;20136;-59
2022/05/12 12:04:04;;;;;;;4.27;1.70;;;;;;;30.78;22.69;96084.19;5023795;28;20125;-59
2022/05/12 12:06:40;;;;;;;2.00;1.90;;;;;;;30.75;26.60;96085.53;5020998;28;20292;-59